createdAt,value
2022-08-23T00:00:22.705Z,5.80
2022-08-23T00:05:26.632Z,7.15
2022-08-23T00:10:29.662Z,6.90
2022-08-23T00:20:36.652Z,8.75
2022-08-23T00:30:43.048Z,10.32
2022-08-23T00:35:45.701Z,10.18
2022-08-23T00:40:51.240Z,8.57
2022-08-23T00:46:21.502Z,11.35
2022-08-23T00:51:28.665Z,14.43
2022-08-23T00:56:35.387Z,11.20
2022-08-23T01:01:39.392Z,11.45
2022-08-23T01:06:49.743Z,12.27
2022-08-23T01:11:57.431Z,11.82
2022-08-23T01:17:06.612Z,11.80
2022-08-23T01:22:17.136Z,13.45
2022-08-23T01:27:21.698Z,11.75
2022-08-23T01:32:25.630Z,11.40
2022-08-23T01:37:31.158Z,14.35
2022-08-23T01:42:35.198Z,11.40
2022-08-23T01:47:37.980Z,13.13
2022-08-23T01:52:46.760Z,13.02
2022-08-23T01:57:54.595Z,13.52
2022-08-23T02:02:57.496Z,13.30
2022-08-23T02:08:21.130Z,14.25
2022-08-23T02:13:27.120Z,17.90
2022-08-23T02:18:31.514Z,14.55
2022-08-23T02:23:34.933Z,15.95
2022-08-23T02:28:39.275Z,16.13
2022-08-23T02:33:42.380Z,17.27
2022-08-23T02:38:45.339Z,18.00
2022-08-23T02:43:52.742Z,18.15
2022-08-23T02:48:55.900Z,18.55
2022-08-23T02:53:58.730Z,16.55
2022-08-23T02:59:02.931Z,19.33
2022-08-23T03:04:07.591Z,18.33
2022-08-23T03:09:11.414Z,27.02
2022-08-23T03:14:15.620Z,17.63
2022-08-23T03:19:18.232Z,16.42
2022-08-23T03:24:20.913Z,17.87
2022-08-23T03:29:25.214Z,19.87
2022-08-23T03:34:28.381Z,23.88
2022-08-23T03:39:31.607Z,22.15
2022-08-23T03:49:38.268Z,27.27
2022-08-23T03:54:41.102Z,21.23
2022-08-23T03:59:45.269Z,18.70
2022-08-23T04:04:47.859Z,19.73
2022-08-23T04:09:54.503Z,18.50
2022-08-23T04:14:59.250Z,18.77
2022-08-23T04:20:03.730Z,19.30
2022-08-23T04:25:10.114Z,19.15
2022-08-23T04:30:32.193Z,19.40
2022-08-23T04:35:34.835Z,19.08
2022-08-23T04:40:55.083Z,17.55
2022-08-23T04:45:59.501Z,18.60
2022-08-23T04:51:02.134Z,17.60
2022-08-23T04:56:05.769Z,16.50
2022-08-23T05:01:11.275Z,17.13
2022-08-23T05:06:14.887Z,17.40
2022-08-23T05:11:18.891Z,18.73
2022-08-23T05:16:23.002Z,14.40
2022-08-23T05:21:26.334Z,15.55
2022-08-23T05:26:29.154Z,14.63
2022-08-23T05:31:33.280Z,16.15
2022-08-23T05:36:36.049Z,13.50
2022-08-23T05:41:40.246Z,14.65
2022-08-23T05:46:45.399Z,15.38
2022-08-23T05:51:51.692Z,14.02
2022-08-23T05:56:54.500Z,12.95
2022-08-23T06:01:58.722Z,12.57
2022-08-23T06:07:01.398Z,11.00
2022-08-23T06:12:04.915Z,13.75
2022-08-23T06:17:09.071Z,11.65
2022-08-23T06:22:12.003Z,13.05
2022-08-23T06:32:19.027Z,14.50
2022-08-23T06:37:21.793Z,12.57
2022-08-23T06:42:41.286Z,12.68
2022-08-23T06:47:45.452Z,11.75
2022-08-23T06:52:48.738Z,11.65
2022-08-23T06:57:52.014Z,11.50
2022-08-23T07:02:56.205Z,10.75
2022-08-23T07:07:58.948Z,11.13
2022-08-23T07:13:01.898Z,10.65
2022-08-23T07:18:06.381Z,9.75
2022-08-23T07:23:14.059Z,10.38
2022-08-23T07:28:17.078Z,11.60
2022-08-23T07:33:22.509Z,12.20
2022-08-23T07:38:30.526Z,11.50
2022-08-23T07:43:34.610Z,12.93
2022-08-23T07:48:53.493Z,10.70
2022-08-23T07:53:57.163Z,11.68
2022-08-23T07:59:02.608Z,10.75
2022-08-23T08:04:08.196Z,13.27
2022-08-23T08:09:12.785Z,10.25
2022-08-23T08:14:17.362Z,8.50
2022-08-23T08:19:21.422Z,9.80
2022-08-23T08:24:24.125Z,9.82
2022-08-23T08:29:27.038Z,13.95
2022-08-23T08:34:31.306Z,9.57
2022-08-23T08:39:34.500Z,9.05
2022-08-23T08:44:41.775Z,11.18
2022-08-23T08:49:50.278Z,9.55
2022-08-23T08:55:01.949Z,10.32
2022-08-23T09:00:12.964Z,9.82
2022-08-23T09:05:19.722Z,9.87
2022-08-23T09:10:34.988Z,8.55
2022-08-23T09:15:42.586Z,6.70
2022-08-23T09:20:53.149Z,6.05
2022-08-23T09:26:03.569Z,10.07
2022-08-23T09:31:08.383Z,9.23
2022-08-23T09:36:28.867Z,6.78
2022-08-23T09:41:36.550Z,5.72
2022-08-23T09:46:41.911Z,5.97
2022-08-23T09:51:46.301Z,6.97
2022-08-23T09:56:53.528Z,7.57
2022-08-23T10:01:59.197Z,4.93
2022-08-23T10:07:24.530Z,3.90
2022-08-23T10:12:27.249Z,6.95
2022-08-23T10:17:39.888Z,4.45
2022-08-23T10:22:46.775Z,4.82
2022-08-23T10:28:14.103Z,7.28
2022-08-23T10:33:21.871Z,3.25
2022-08-23T10:38:41.452Z,4.90
2022-08-23T10:43:53.663Z,4.18
2022-08-23T10:49:00.017Z,4.88
2022-08-23T10:54:08.014Z,4.75
2022-08-23T10:59:14.609Z,5.53
2022-08-23T11:04:25.134Z,6.10
2022-08-23T11:09:51.890Z,4.40
2022-08-23T11:15:19.464Z,5.40
2022-08-23T11:20:59.566Z,3.85
2022-08-23T11:26:04.994Z,9.80
2022-08-23T11:31:32.879Z,4.00
2022-08-23T11:36:37.131Z,5.45
2022-08-23T11:42:04.896Z,6.97
2022-08-23T11:47:09.027Z,5.85
2022-08-23T11:52:23.074Z,2.92
2022-08-23T11:57:38.573Z,5.55
2022-08-23T12:03:01.839Z,4.72
2022-08-23T12:08:44.378Z,4.80
2022-08-23T12:13:57.911Z,3.38
2022-08-23T12:19:06.642Z,4.57
2022-08-23T12:24:24.166Z,4.25
2022-08-23T12:29:39.653Z,5.35
2022-08-23T12:34:51.653Z,3.95
2022-08-23T12:39:59.176Z,4.55
2022-08-23T12:45:08.815Z,4.72
2022-08-23T12:50:26.095Z,6.32
2022-08-23T12:55:39.044Z,6.03
2022-08-23T13:00:53.480Z,4.32
2022-08-23T13:06:01.908Z,6.97
2022-08-23T13:11:08.337Z,3.95
2022-08-23T13:16:27.942Z,2.95
2022-08-23T13:21:39.397Z,3.40
2022-08-23T13:26:44.639Z,6.10
2022-08-23T13:32:03.149Z,6.70
2022-08-23T13:37:15.639Z,5.32
2022-08-23T13:42:27.507Z,3.97
2022-08-23T13:47:31.981Z,6.47
2022-08-23T13:53:10.132Z,4.75
2022-08-23T13:58:02.829Z,5.38
2022-08-23T14:03:08.403Z,3.63
2022-08-23T14:08:11.070Z,3.28
2022-08-23T14:13:15.041Z,5.50
2022-08-23T14:18:19.547Z,3.75
2022-08-23T14:23:22.058Z,7.55
2022-08-23T14:28:30.184Z,6.68
2022-08-23T14:33:34.128Z,5.88
2022-08-23T14:38:36.694Z,5.45
2022-08-23T14:43:39.346Z,9.02
2022-08-23T14:48:43.275Z,5.15
2022-08-23T14:53:45.887Z,4.55
2022-08-23T14:58:48.580Z,4.88
2022-08-23T15:03:52.950Z,5.55
2022-08-23T15:08:55.530Z,3.85
2022-08-23T15:14:00.324Z,4.63
2022-08-23T15:19:06.505Z,4.47
2022-08-23T15:24:10.363Z,5.38
2022-08-23T15:29:12.926Z,4.35
2022-08-23T15:34:23.346Z,4.10
2022-08-23T15:39:25.994Z,4.00
2022-08-23T15:44:28.550Z,7.78
2022-08-23T15:49:36.535Z,4.88
2022-08-23T15:54:39.276Z,6.05
2022-08-23T15:59:41.926Z,4.20
2022-08-23T16:04:46.163Z,4.05
2022-08-23T16:09:48.897Z,3.60
2022-08-23T16:14:51.451Z,4.60
2022-08-23T16:19:55.302Z,5.35
2022-08-23T16:24:57.914Z,4.32
2022-08-23T16:30:00.508Z,5.85
2022-08-23T16:35:05.096Z,6.28
2022-08-23T16:40:09.498Z,4.20
2022-08-23T16:45:13.503Z,3.88
2022-08-23T16:50:17.536Z,7.75
2022-08-23T16:55:20.685Z,3.25
2022-08-23T17:00:23.755Z,4.10
2022-08-23T17:05:29.318Z,5.47
2022-08-23T17:10:33.651Z,3.65
2022-08-23T17:15:37.953Z,3.25
2022-08-23T17:20:42.019Z,3.20
2022-08-23T17:25:47.675Z,5.35
2022-08-23T17:30:50.292Z,3.63
2022-08-23T17:35:54.516Z,9.27
2022-08-23T17:40:57.525Z,3.17
2022-08-23T17:46:00.139Z,3.38
2022-08-23T17:51:04.083Z,3.75
2022-08-23T17:56:08.054Z,3.60
2022-08-23T18:01:15.048Z,4.30
2022-08-23T18:06:19.498Z,5.45
2022-08-23T18:11:22.859Z,3.83
2022-08-23T18:16:31.711Z,2.90
2022-08-23T18:21:39.942Z,4.77
2022-08-23T18:27:00.476Z,4.57
2022-08-23T18:32:04.130Z,6.28
2022-08-23T18:37:08.586Z,6.13
2022-08-23T18:42:12.071Z,4.32
2022-08-23T18:47:14.623Z,8.85
2022-08-23T18:52:18.657Z,4.60
2022-08-23T18:57:21.176Z,5.95
2022-08-23T19:07:28.112Z,5.72
2022-08-23T19:12:30.639Z,6.38
2022-08-23T19:22:36.962Z,8.73
2022-08-23T19:27:39.645Z,6.78
2022-08-23T19:37:45.912Z,3.17
2022-08-23T19:42:49.020Z,7.15
2022-08-23T19:47:53.939Z,8.27
2022-08-23T19:52:58.301Z,8.07
2022-08-23T19:58:01.011Z,6.55
2022-08-23T20:03:04.044Z,8.88
2022-08-23T20:08:08.423Z,4.35
2022-08-23T20:13:11.795Z,6.82
2022-08-23T20:18:14.330Z,7.00
2022-08-23T20:23:35.998Z,9.60
2022-08-23T20:28:38.597Z,8.75
2022-08-23T20:33:57.901Z,7.63
2022-08-23T20:39:02.830Z,8.85
2022-08-23T20:44:06.183Z,6.38
2022-08-23T20:49:08.919Z,8.90
2022-08-23T20:59:15.192Z,5.05
2022-08-23T21:04:18.039Z,5.07
2022-08-23T21:14:28.565Z,7.25
2022-08-23T21:19:31.265Z,8.52
2022-08-23T21:24:35.146Z,6.70
2022-08-23T21:29:37.871Z,7.70
2022-08-23T21:34:40.508Z,7.88
2022-08-23T21:39:44.494Z,6.80
2022-08-23T21:44:48.990Z,7.82
2022-08-23T21:49:51.481Z,8.05
2022-08-23T21:54:55.452Z,13.38
2022-08-23T21:59:58.278Z,9.68
2022-08-23T22:05:01.405Z,12.75
2022-08-23T22:10:07.607Z,9.73
2022-08-23T22:15:11.081Z,9.95
2022-08-23T22:20:14.261Z,8.65
2022-08-23T22:25:18.523Z,11.30
2022-08-23T22:30:22.652Z,14.00
2022-08-23T22:35:25.298Z,13.52
2022-08-23T22:40:29.217Z,12.88
2022-08-23T22:45:31.814Z,12.02
2022-08-23T22:50:34.326Z,11.23
2022-08-23T22:55:38.336Z,13.65
2022-08-23T23:00:43.548Z,11.48
2022-08-23T23:05:46.266Z,12.30
2022-08-23T23:10:50.371Z,11.85
2022-08-23T23:15:54.278Z,14.32
2022-08-23T23:21:00.166Z,13.15
2022-08-23T23:26:07.992Z,17.00
2022-08-23T23:31:10.691Z,15.05
2022-08-23T23:36:13.403Z,17.17
2022-08-23T23:41:21.476Z,16.27
2022-08-23T23:46:24.998Z,15.27
2022-08-23T23:51:30.390Z,16.88
2022-08-23T23:56:34.392Z,16.73
